Time;durP1;ratioP1;P1;durP2;ratioP2;P2;SDS_P1;SDS_P2;PMS_P1;PMS_P2;Temp;Humidity;BMP_temperature;BMP_pressure;BME280_temperature;BME280_humidity;BME280_pressure;Samples;Min_cycle;Max_cycle;Signal;HPM_P1;HPM_P2
2023/04/16 00:01:33;;;;;;;22.93;13.80;;;;;;;;;;5055446;28;20370;-82
2023/04/16 00:03:59;;;;;;;22.63;13.97;;;;;;;;;;5055406;28;20495;-82
2023/04/16 00:06:24;;;;;;;23.80;13.50;;;;;;;;;;5055160;28;20128;-81
2023/04/16 00:08:50;;;;;;;25.20;15.47;;;;;;;;;;5069710;28;20039;-82
2023/04/16 00:11:16;;;;;;;27.30;14.77;;;;;;;;;;5070146;28;20400;-81
2023/04/16 00:13:42;;;;;;;23.40;14.90;;;;;;;;;;5054581;28;20511;-81
2023/04/16 00:16:08;;;;;;;27.93;14.60;;;;;;;;;;5054961;28;20036;-83
2023/04/16 00:18:34;;;;;;;26.80;13.87;;;;;;;;;;5054450;28;20029;-81
2023/04/16 00:21:00;;;;;;;21.17;13.00;;;;;;;;;;5053829;28;20487;-83
2023/04/16 00:23:25;;;;;;;22.90;13.47;;;;;;;;;;5055372;28;20033;-81
2023/04/16 00:25:52;;;;;;;21.17;13.10;;;;;;;;;;5055657;28;20032;-81
2023/04/16 00:28:18;;;;;;;23.80;14.07;;;;;;;;;;5055286;28;20404;-79
2023/04/16 00:30:44;;;;;;;24.70;13.07;;;;;;;;;;5054843;28;20294;-82
2023/04/16 00:33:10;;;;;;;23.07;13.30;;;;;;;;;;5053777;28;20086;-82
2023/04/16 00:35:35;;;;;;;22.07;13.07;;;;;;;;;;5053875;28;20039;-82
2023/04/16 00:38:01;;;;;;;21.53;12.90;;;;;;;;;;5052450;28;20021;-81
2023/04/16 00:40:29;;;;;;;20.57;12.10;;;;;;;;;;5054703;28;20029;-81
2023/04/16 00:42:55;;;;;;;20.73;13.23;;;;;;;;;;5053047;28;20040;-82
2023/04/16 00:45:20;;;;;;;25.37;13.73;;;;;;;;;;5054336;28;20025;-82
2023/04/16 00:47:46;;;;;;;23.47;14.13;;;;;;;;;;5052430;28;20049;-83
2023/04/16 00:50:12;;;;;;;26.83;13.53;;;;;;;;;;5058062;28;20079;-82
2023/04/16 00:52:39;;;;;;;24.70;13.07;;;;;;;;;;5057223;28;20440;-82
2023/04/16 00:55:06;;;;;;;18.73;11.37;;;;;;;;;;5073705;28;20059;-82
2023/04/16 00:57:31;;;;;;;21.33;12.77;;;;;;;;;;5058033;28;20111;-81
2023/04/16 00:59:57;;;;;;;22.20;12.57;;;;;;;;;;5057508;28;20255;-81
2023/04/16 01:02:23;;;;;;;21.63;12.40;;;;;;;;;;5057456;28;20059;-82
2023/04/16 01:04:50;;;;;;;23.03;12.93;;;;;;;;;;5057733;28;20039;-82
2023/04/16 01:07:16;;;;;;;21.77;11.97;;;;;;;;;;5058462;28;20107;-82
2023/04/16 01:09:42;;;;;;;24.00;13.10;;;;;;;;;;5057435;28;20467;-79
2023/04/16 01:12:07;;;;;;;21.93;13.43;;;;;;;;;;5054972;28;20013;-81
2023/04/16 01:14:35;;;;;;;20.67;12.53;;;;;;;;;;5056217;28;20118;-81
2023/04/16 01:17:01;;;;;;;20.63;12.60;;;;;;;;;;5056335;28;20033;-81
2023/04/16 01:19:30;;;;;;;19.40;13.13;;;;;;;;;;5056237;28;20025;-81
2023/04/16 01:21:55;;;;;;;21.60;12.47;;;;;;;;;;5056258;28;20079;-81
2023/04/16 01:24:21;;;;;;;23.27;12.07;;;;;;;;;;5057971;28;20049;-81
2023/04/16 01:26:46;;;;;;;25.03;14.07;;;;;;;;;;5057093;28;20033;-82
2023/04/16 01:29:12;;;;;;;20.93;13.40;;;;;;;;;;5057160;28;20028;-81
2023/04/16 01:31:39;;;;;;;20.17;12.27;;;;;;;;;;5055995;28;20047;-81
2023/04/16 01:34:04;;;;;;;18.80;12.47;;;;;;;;;;5056240;28;20024;-81
2023/04/16 01:36:30;;;;;;;20.90;12.80;;;;;;;;;;5056654;28;20066;-81
2023/04/16 01:38:55;;;;;;;18.80;12.23;;;;;;;;;;5057522;28;20423;-82
2023/04/16 01:41:21;;;;;;;19.93;12.40;;;;;;;;;;5056122;28;20021;-81
2023/04/16 01:43:46;;;;;;;21.00;12.87;;;;;;;;;;5057293;28;20102;-81
2023/04/16 01:46:31;;;;;;;30.00;13.20;;;;;;;;;;5055370;28;20001;-80
2023/04/16 01:48:57;;;;;;;22.63;12.23;;;;;;;;;;5056002;28;20116;-81
2023/04/16 01:51:23;;;;;;;20.60;13.93;;;;;;;;;;5057367;28;20013;-81
2023/04/16 01:53:49;;;;;;;22.60;13.90;;;;;;;;;;5056981;28;20025;-81
2023/04/16 01:56:16;;;;;;;23.30;13.40;;;;;;;;;;5055960;28;20121;-80
2023/04/16 01:58:41;;;;;;;22.90;13.17;;;;;;;;;;5054354;28;20035;-81
2023/04/16 02:01:10;;;;;;;21.37;12.80;;;;;;;;;;5053988;28;20024;-81
2023/04/16 02:03:36;;;;;;;28.00;13.87;;;;;;;;;;5054692;28;20329;-82
2023/04/16 02:06:02;;;;;;;23.23;13.00;;;;;;;;;;5056390;28;20100;-82
2023/04/16 02:08:27;;;;;;;22.40;12.87;;;;;;;;;;5057498;28;20025;-81
2023/04/16 02:10:54;;;;;;;20.63;12.80;;;;;;;;;;5055464;28;20029;-81
2023/04/16 02:13:20;;;;;;;21.17;12.17;;;;;;;;;;5056002;28;20037;-82
2023/04/16 02:15:49;;;;;;;18.70;11.73;;;;;;;;;;5057026;28;20362;-82
2023/04/16 02:18:15;;;;;;;21.93;13.00;;;;;;;;;;5057912;28;20080;-82
2023/04/16 02:20:42;;;;;;;22.23;12.47;;;;;;;;;;5056094;28;20028;-82
2023/04/16 02:23:09;;;;;;;22.63;13.03;;;;;;;;;;5056447;28;20031;-82
2023/04/16 02:25:42;;;;;;;20.33;12.53;;;;;;;;;;5054063;28;20020;-82
2023/04/16 02:28:08;;;;;;;21.87;13.30;;;;;;;;;;5054828;28;20033;-82
2023/04/16 02:30:35;;;;;;;19.73;12.40;;;;;;;;;;5055501;28;20025;-82
2023/04/16 02:33:03;;;;;;;23.03;13.53;;;;;;;;;;5056918;28;20021;-82
2023/04/16 02:35:29;;;;;;;22.67;12.87;;;;;;;;;;5056073;28;20017;-81
2023/04/16 02:37:54;;;;;;;19.77;12.67;;;;;;;;;;5056141;28;20033;-81
2023/04/16 02:40:20;;;;;;;22.80;14.17;;;;;;;;;;5054350;28;20402;-81
2023/04/16 02:42:46;;;;;;;21.60;12.40;;;;;;;;;;5054262;28;20013;-81
2023/04/16 02:45:11;;;;;;;20.60;11.57;;;;;;;;;;5053699;28;20037;-81
2023/04/16 02:47:37;;;;;;;19.40;12.40;;;;;;;;;;5055525;28;20492;-80
2023/04/16 02:50:03;;;;;;;20.50;12.43;;;;;;;;;;5053734;28;20029;-82
2023/04/16 02:52:28;;;;;;;21.73;13.40;;;;;;;;;;5055070;28;20044;-81
2023/04/16 02:54:54;;;;;;;22.40;12.67;;;;;;;;;;5053260;28;20044;-81
2023/04/16 02:57:19;;;;;;;22.17;13.17;;;;;;;;;;5053732;28;20350;-80
2023/04/16 02:59:45;;;;;;;21.87;11.50;;;;;;;;;;5054486;28;20071;-81
2023/04/16 03:02:10;;;;;;;20.90;11.77;;;;;;;;;;5055415;28;20021;-81
2023/04/16 03:04:36;;;;;;;23.47;13.10;;;;;;;;;;5070111;28;20037;-82
2023/04/16 03:07:01;;;;;;;19.17;12.20;;;;;;;;;;5054517;28;20036;-81
2023/04/16 03:09:27;;;;;;;26.47;13.30;;;;;;;;;;5054231;28;20400;-80
2023/04/16 03:11:52;;;;;;;21.37;13.30;;;;;;;;;;5052652;28;20028;-81
2023/04/16 03:14:18;;;;;;;23.47;13.00;;;;;;;;;;5053936;28;20112;-81
2023/04/16 03:16:43;;;;;;;20.80;12.33;;;;;;;;;;5053381;28;20468;-81
2023/04/16 03:19:09;;;;;;;19.57;11.90;;;;;;;;;;5055259;28;20491;-81
2023/04/16 03:21:34;;;;;;;20.93;12.70;;;;;;;;;;5054004;28;20044;-81
2023/04/16 03:24:00;;;;;;;20.70;12.53;;;;;;;;;;5053341;28;20067;-81
2023/04/16 03:26:25;;;;;;;22.97;13.10;;;;;;;;;;5053816;28;20054;-81
2023/04/16 03:28:51;;;;;;;21.40;12.27;;;;;;;;;;5053389;28;20039;-81
2023/04/16 03:31:16;;;;;;;22.57;11.83;;;;;;;;;;5055229;28;20429;-81
2023/04/16 03:33:42;;;;;;;20.57;11.93;;;;;;;;;;5054677;28;20111;-81
2023/04/16 03:36:08;;;;;;;23.57;12.53;;;;;;;;;;5054152;28;20074;-82
2023/04/16 03:38:34;;;;;;;20.90;12.13;;;;;;;;;;5054566;28;20120;-80
2023/04/16 03:41:00;;;;;;;18.33;10.97;;;;;;;;;;5053315;28;20456;-81
2023/04/16 03:43:25;;;;;;;17.20;11.77;;;;;;;;;;5053936;28;20033;-80
2023/04/16 03:45:51;;;;;;;21.90;12.63;;;;;;;;;;5053026;28;20041;-81
2023/04/16 03:48:16;;;;;;;18.60;12.03;;;;;;;;;;5054155;28;20099;-80
2023/04/16 03:50:46;;;;;;;24.60;12.30;;;;;;;;;;5054800;28;20029;-80
2023/04/16 03:53:12;;;;;;;21.50;12.10;;;;;;;;;;5054278;28;20499;-81
2023/04/16 03:55:38;;;;;;;20.20;12.53;;;;;;;;;;5053331;28;20121;-81
2023/04/16 03:58:03;;;;;;;21.17;11.93;;;;;;;;;;5058370;28;20425;-81
2023/04/16 04:00:30;;;;;;;23.87;12.30;;;;;;;;;;5055470;28;20032;-81
2023/04/16 04:02:55;;;;;;;17.83;11.17;;;;;;;;;;5038459;28;20037;-80
2023/04/16 04:05:22;;;;;;;22.97;12.37;;;;;;;;;;5052250;28;20048;-82
2023/04/16 04:07:48;;;;;;;23.03;11.80;;;;;;;;;;5069536;28;20074;-80
2023/04/16 04:10:14;;;;;;;21.70;12.27;;;;;;;;;;5055406;28;20503;-80
2023/04/16 04:12:39;;;;;;;21.20;12.17;;;;;;;;;;5054012;28;20040;-80
2023/04/16 04:15:06;;;;;;;21.10;12.37;;;;;;;;;;5068411;28;20033;-82
2023/04/16 04:17:31;;;;;;;18.90;11.93;;;;;;;;;;5053909;28;20349;-81
2023/04/16 04:19:57;;;;;;;20.67;12.23;;;;;;;;;;5054013;28;20358;-81
2023/04/16 04:22:22;;;;;;;23.00;12.63;;;;;;;;;;5052670;28;20489;-81
2023/04/16 04:24:48;;;;;;;20.53;12.90;;;;;;;;;;5052953;28;20321;-81
2023/04/16 04:27:13;;;;;;;22.30;12.37;;;;;;;;;;5054442;28;20025;-81
2023/04/16 04:29:39;;;;;;;21.80;12.57;;;;;;;;;;5054246;28;20108;-82
2023/04/16 04:32:04;;;;;;;22.60;13.03;;;;;;;;;;5053392;28;20588;-81
2023/04/16 04:34:30;;;;;;;20.33;11.13;;;;;;;;;;5053831;28;20078;-82
2023/04/16 04:36:55;;;;;;;24.00;12.63;;;;;;;;;;5054298;28;20032;-81
2023/04/16 04:39:21;;;;;;;20.03;12.10;;;;;;;;;;5055385;28;20017;-81
2023/04/16 04:41:47;;;;;;;22.77;12.27;;;;;;;;;;5053301;28;20025;-82
2023/04/16 04:44:12;;;;;;;18.77;12.37;;;;;;;;;;5055198;28;20040;-79
2023/04/16 04:46:39;;;;;;;20.80;11.97;;;;;;;;;;5052408;28;20021;-81
2023/04/16 04:49:05;;;;;;;22.13;11.63;;;;;;;;;;5054051;28;20029;-81
2023/04/16 04:51:31;;;;;;;19.70;11.83;;;;;;;;;;5054212;28;20021;-82
2023/04/16 04:53:56;;;;;;;18.83;11.33;;;;;;;;;;5053661;28;20428;-82
2023/04/16 04:56:22;;;;;;;20.73;12.20;;;;;;;;;;5053019;28;20044;-83
2023/04/16 04:58:49;;;;;;;22.43;12.37;;;;;;;;;;5052875;28;20052;-81
2023/04/16 05:01:16;;;;;;;21.87;13.00;;;;;;;;;;5054244;28;20396;-81
2023/04/16 05:03:41;;;;;;;22.30;12.03;;;;;;;;;;5054385;28;20029;-82
2023/04/16 05:06:07;;;;;;;23.70;11.93;;;;;;;;;;5052541;28;20056;-82
2023/04/16 05:08:32;;;;;;;23.13;12.60;;;;;;;;;;5053758;28;20047;-82
2023/04/16 05:10:59;;;;;;;23.03;11.70;;;;;;;;;;5052479;28;20029;-81
2023/04/16 05:13:25;;;;;;;21.70;11.87;;;;;;;;;;5053647;28;20021;-81
2023/04/16 05:15:51;;;;;;;20.07;12.13;;;;;;;;;;5052914;28;20032;-81
2023/04/16 05:18:16;;;;;;;19.30;11.50;;;;;;;;;;5054369;28;20029;-81
2023/04/16 05:20:42;;;;;;;23.47;11.97;;;;;;;;;;5054243;28;20028;-82
2023/04/16 05:23:07;;;;;;;19.37;11.40;;;;;;;;;;5051777;28;20036;-82
2023/04/16 05:25:33;;;;;;;17.70;10.80;;;;;;;;;;5054324;28;20036;-83
2023/04/16 05:27:58;;;;;;;22.73;11.77;;;;;;;;;;5069669;28;20129;-82
2023/04/16 05:30:24;;;;;;;20.23;12.07;;;;;;;;;;5053170;28;20437;-83
2023/04/16 05:32:50;;;;;;;18.33;12.13;;;;;;;;;;5052464;28;20032;-83
2023/04/16 05:35:15;;;;;;;16.53;10.77;;;;;;;;;;5054901;28;20126;-82
2023/04/16 05:37:41;;;;;;;19.80;11.33;;;;;;;;;;5056470;28;20021;-83
2023/04/16 05:40:07;;;;;;;18.23;11.47;;;;;;;;;;5057616;28;20489;-82
2023/04/16 05:42:33;;;;;;;18.60;10.77;;;;;;;;;;5055894;28;20029;-81
2023/04/16 05:44:58;;;;;;;18.10;11.53;;;;;;;;;;5057390;28;20044;-82
2023/04/16 05:47:24;;;;;;;19.10;11.03;;;;;;;;;;5057685;28;20444;-82
2023/04/16 05:49:49;;;;;;;22.97;11.40;;;;;;;;;;5057831;28;20033;-82
2023/04/16 05:52:15;;;;;;;17.03;10.70;;;;;;;;;;5055306;28;20072;-81
2023/04/16 05:54:40;;;;;;;19.23;11.97;;;;;;;;;;5072193;28;20428;-81
2023/04/16 05:57:06;;;;;;;19.90;11.73;;;;;;;;;;5055711;28;20030;-81
2023/04/16 05:59:31;;;;;;;16.80;10.57;;;;;;;;;;5056488;28;20040;-80
2023/04/16 06:01:57;;;;;;;15.50;10.37;;;;;;;;;;5056822;28;20066;-81
2023/04/16 06:04:24;;;;;;;19.03;11.00;;;;;;;;;;5056750;28;20039;-81
2023/04/16 06:06:49;;;;;;;16.93;11.00;;;;;;;;;;5056150;28;20052;-82
2023/04/16 06:09:15;;;;;;;16.43;9.60;;;;;;;;;;5057390;28;20029;-81
2023/04/16 06:11:41;;;;;;;15.50;10.60;;;;;;;;;;5056700;28;20029;-83
2023/04/16 06:14:06;;;;;;;16.90;10.50;;;;;;;;;;5056256;28;20455;-80
2023/04/16 06:16:31;;;;;;;21.17;11.07;;;;;;;;;;5055132;28;20028;-82
2023/04/16 06:18:57;;;;;;;15.70;10.70;;;;;;;;;;5057388;28;20021;-82
2023/04/16 06:21:22;;;;;;;18.88;10.55;;;;;;;;;;5056584;28;20030;-82
2023/04/16 06:23:48;;;;;;;18.30;12.30;;;;;;;;;;5056212;28;20064;-81
2023/04/16 06:26:14;;;;;;;18.67;10.82;;;;;;;;;;5056570;28;20032;-81
2023/04/16 06:28:39;;;;;;;16.15;10.05;;;;;;;;;;5057349;28;20029;-82
2023/04/16 06:31:05;;;;;;;16.90;10.57;;;;;;;;;;5055772;28;20076;-83
2023/04/16 06:33:30;;;;;;;17.90;10.38;;;;;;;;;;5056043;28;20124;-80
2023/04/16 06:35:56;;;;;;;20.30;10.52;;;;;;;;;;5055857;28;20358;-83
2023/04/16 06:38:21;;;;;;;15.60;10.00;;;;;;;;;;5058748;28;20079;-83
2023/04/16 06:40:48;;;;;;;14.20;10.15;;;;;;;;;;5058097;28;20069;-81
2023/04/16 06:43:14;;;;;;;14.52;9.90;;;;;;;;;;5056243;28;20036;-81
2023/04/16 06:45:40;;;;;;;13.30;9.15;;;;;;;;;;5055702;28;20044;-82
2023/04/16 06:48:05;;;;;;;15.50;10.30;;;;;;;;;;5054820;28;20049;-81
2023/04/16 06:50:31;;;;;;;13.35;9.48;;;;;;;;;;5056846;28;20021;-83
2023/04/16 06:52:57;;;;;;;17.50;9.50;;;;;;;;;;5055097;28;20028;-81
2023/04/16 06:55:22;;;;;;;16.30;10.55;;;;;;;;;;5054492;28;20123;-81
2023/04/16 06:57:48;;;;;;;17.00;9.38;;;;;;;;;;5053593;28;20063;-81
2023/04/16 07:00:13;;;;;;;16.85;10.00;;;;;;;;;;5056323;28;20071;-83
2023/04/16 07:02:39;;;;;;;14.75;9.80;;;;;;;;;;5057336;28;20112;-82
2023/04/16 07:05:05;;;;;;;14.25;9.93;;;;;;;;;;5056781;28;20033;-83
2023/04/16 07:07:31;;;;;;;15.95;10.32;;;;;;;;;;5055511;28;20017;-84
2023/04/16 07:09:57;;;;;;;14.52;10.15;;;;;;;;;;5055309;28;20037;-82
2023/04/16 07:12:23;;;;;;;14.75;10.52;;;;;;;;;;5056247;28;20017;-83
2023/04/16 07:14:48;;;;;;;17.05;9.60;;;;;;;;;;5057363;28;20031;-84
2023/04/16 07:17:14;;;;;;;14.45;9.88;;;;;;;;;;5055991;28;20473;-82
2023/04/16 07:19:41;;;;;;;14.80;10.43;;;;;;;;;;5057294;28;20100;-82
2023/04/16 07:22:08;;;;;;;13.55;9.68;;;;;;;;;;5058422;28;20041;-82
2023/04/16 07:24:34;;;;;;;17.98;11.10;;;;;;;;;;5056422;28;20060;-82
2023/04/16 07:27:00;;;;;;;16.75;10.93;;;;;;;;;;5054687;28;20021;-79
2023/04/16 07:29:25;;;;;;;18.52;11.35;;;;;;;;;;5055005;28;20194;-81
2023/04/16 07:31:51;;;;;;;16.98;10.85;;;;;;;;;;5055506;28;20048;-82
2023/04/16 07:34:16;;;;;;;22.25;12.20;;;;;;;;;;5055661;28;20029;-80
2023/04/16 07:36:42;;;;;;;14.00;10.60;;;;;;;;;;5057208;28;20465;-83
2023/04/16 07:39:09;;;;;;;20.27;10.18;;;;;;;;;;5055015;28;20377;-82
2023/04/16 07:41:35;;;;;;;16.70;10.80;;;;;;;;;;5056235;28;20025;-81
2023/04/16 07:44:00;;;;;;;16.23;10.15;;;;;;;;;;5056170;28;20055;-83
2023/04/16 07:46:26;;;;;;;17.38;12.05;;;;;;;;;;5055866;28;20044;-81
2023/04/16 07:48:51;;;;;;;18.60;10.85;;;;;;;;;;5056694;28;20028;-82
2023/04/16 07:51:18;;;;;;;15.30;10.07;;;;;;;;;;5054823;28;20052;-83
2023/04/16 07:53:44;;;;;;;20.13;11.07;;;;;;;;;;5057141;28;20476;-82
2023/04/16 07:56:09;;;;;;;16.70;9.90;;;;;;;;;;5055125;28;20037;-83
2023/04/16 07:58:35;;;;;;;14.43;10.18;;;;;;;;;;5055964;28;20452;-83
2023/04/16 08:01:01;;;;;;;13.60;9.90;;;;;;;;;;5054583;28;20017;-81
2023/04/16 08:03:30;;;;;;;16.80;12.70;;;;;;;;;;5057586;28;20088;-82
2023/04/16 08:05:55;;;;;;;12.43;9.73;;;;;;;;;;5056459;28;20881;-81
2023/04/16 08:08:21;;;;;;;14.50;9.70;;;;;;;;;;5054511;28;20048;-81
2023/04/16 08:10:47;;;;;;;12.48;9.30;;;;;;;;;;5054797;28;20021;-82
2023/04/16 08:13:12;;;;;;;17.08;10.15;;;;;;;;;;5054171;28;20035;-83
2023/04/16 08:15:38;;;;;;;11.98;9.20;;;;;;;;;;5054740;28;20056;-81
2023/04/16 08:18:04;;;;;;;14.48;10.60;;;;;;;;;;5056238;28;20056;-81
2023/04/16 08:20:32;;;;;;;15.73;10.40;;;;;;;;;;5053883;28;20473;-83
2023/04/16 08:22:57;;;;;;;11.88;8.80;;;;;;;;;;5054509;28;20020;-82
2023/04/16 08:25:23;;;;;;;12.02;8.90;;;;;;;;;;5053973;28;20040;-83
2023/04/16 08:27:49;;;;;;;13.15;8.88;;;;;;;;;;5054444;28;20199;-82
2023/04/16 08:30:15;;;;;;;12.68;8.95;;;;;;;;;;5054617;28;20032;-83
2023/04/16 08:32:41;;;;;;;17.42;8.65;;;;;;;;;;5054374;28;20048;-83
2023/04/16 08:35:08;;;;;;;13.13;9.57;;;;;;;;;;5055580;28;20061;-82
2023/04/16 08:37:33;;;;;;;14.95;9.95;;;;;;;;;;5053822;28;20032;-82
2023/04/16 08:40:01;;;;;;;18.70;9.27;;;;;;;;;;5054755;28;20025;-82
2023/04/16 08:42:36;;;;;;;12.23;8.60;;;;;;;;;;5055493;28;20461;-81
2023/04/16 08:45:28;;;;;;;13.05;9.27;;;;;;;;;;5055341;28;20029;-82
2023/04/16 08:47:54;;;;;;;14.68;11.13;;;;;;;;;;5051958;28;20072;-83
2023/04/16 08:50:24;;;;;;;21.05;10.35;;;;;;;;;;5054676;28;20037;-82
2023/04/16 08:52:51;;;;;;;101.80;18.23;;;;;;;;;;5055279;28;20029;-83
2023/04/16 08:55:37;;;;;;;15.10;10.15;;;;;;;;;;5054377;28;20033;-83
2023/04/16 08:58:08;;;;;;;14.70;9.30;;;;;;;;;;5054775;28;20071;-83
2023/04/16 09:00:36;;;;;;;17.00;10.18;;;;;;;;;;5054865;28;20032;-82
2023/04/16 09:03:02;;;;;;;13.77;9.75;;;;;;;;;;5060104;28;20033;-83
2023/04/16 09:05:28;;;;;;;16.67;9.90;;;;;;;;;;5055974;28;20032;-82
2023/04/16 09:07:54;;;;;;;20.88;10.70;;;;;;;;;;5054291;28;20028;-83
2023/04/16 09:10:20;;;;;;;20.30;10.30;;;;;;;;;;5056520;28;20111;-81
2023/04/16 09:12:45;;;;;;;15.55;10.10;;;;;;;;;;5057891;28;20029;-82
2023/04/16 09:15:12;;;;;;;11.68;8.18;;;;;;;;;;5059187;28;20087;-81
2023/04/16 09:17:38;;;;;;;12.18;7.32;;;;;;;;;;5058495;28;20032;-82
2023/04/16 09:20:07;;;;;;;10.40;7.95;;;;;;;;;;5058508;28;20492;-80
2023/04/16 09:22:33;;;;;;;14.70;7.57;;;;;;;;;;5058402;28;20028;-84
2023/04/16 09:24:59;;;;;;;35.80;10.95;;;;;;;;;;5057900;28;20029;-83
2023/04/16 09:27:25;;;;;;;15.82;9.93;;;;;;;;;;5057831;28;20029;-83
2023/04/16 09:29:50;;;;;;;12.70;8.98;;;;;;;;;;5059601;28;20021;-80
2023/04/16 09:32:16;;;;;;;12.88;9.45;;;;;;;;;;5058446;28;20110;-83
2023/04/16 09:34:59;;;;;;;19.80;12.52;;;;;;;;;;5057666;28;20024;-81
2023/04/16 09:37:28;;;;;;;15.70;10.52;;;;;;;;;;5059902;28;20032;-83
2023/04/16 09:40:06;;;;;;;14.13;7.43;;;;;;;;;;5074557;28;20059;-82
2023/04/16 09:42:34;;;;;;;13.98;8.20;;;;;;;;;;5059064;28;20017;-82
2023/04/16 09:45:00;;;;;;;13.95;9.40;;;;;;;;;;5058776;28;20123;-80
2023/04/16 09:47:39;;;;;;;28.58;9.77;;;;;;;;;;5057824;28;20073;-81
2023/04/16 09:50:05;;;;;;;13.23;8.30;;;;;;;;;;5042170;28;20037;-81
2023/04/16 09:52:30;;;;;;;11.50;7.75;;;;;;;;;;5060860;28;20052;-83
2023/04/16 09:54:56;;;;;;;15.90;8.73;;;;;;;;;;5058490;28;20036;-84
2023/04/16 09:57:23;;;;;;;13.82;8.25;;;;;;;;;;5058169;28;20032;-82
2023/04/16 09:59:56;;;;;;;12.25;7.88;;;;;;;;;;5058250;28;20108;-83
2023/04/16 10:02:27;;;;;;;11.00;8.55;;;;;;;;;;5058665;28;20020;-84
2023/04/16 10:04:52;;;;;;;15.15;8.98;;;;;;;;;;5058598;28;20473;-82
2023/04/16 10:07:19;;;;;;;11.98;7.88;;;;;;;;;;5059819;28;20025;-82
2023/04/16 10:09:51;;;;;;;9.85;7.60;;;;;;;;;;5059248;28;20106;-83
2023/04/16 10:12:16;;;;;;;10.15;6.20;;;;;;;;;;5057774;28;20503;-84
2023/04/16 10:14:42;;;;;;;12.52;7.50;;;;;;;;;;5058909;28;20033;-84
2023/04/16 10:17:08;;;;;;;7.80;5.97;;;;;;;;;;5057194;28;20028;-83
2023/04/16 10:19:34;;;;;;;10.02;7.07;;;;;;;;;;5058167;28;20054;-83
2023/04/16 10:22:01;;;;;;;8.27;5.82;;;;;;;;;;5055534;28;20032;-83
2023/04/16 10:24:31;;;;;;;6.72;5.25;;;;;;;;;;5057108;28;20032;-83
2023/04/16 10:26:58;;;;;;;6.43;5.10;;;;;;;;;;5057001;28;20510;-82
2023/04/16 10:29:25;;;;;;;9.60;5.63;;;;;;;;;;5038845;28;20425;-82
2023/04/16 10:31:52;;;;;;;9.45;5.72;;;;;;;;;;5056456;28;20055;-83
2023/04/16 10:34:19;;;;;;;7.90;5.78;;;;;;;;;;5055938;28;20032;-82
2023/04/16 10:36:49;;;;;;;7.18;5.28;;;;;;;;;;5056239;28;20369;-82
2023/04/16 10:39:20;;;;;;;8.82;4.65;;;;;;;;;;5055798;28;20025;-83
2023/04/16 10:41:46;;;;;;;6.55;4.60;;;;;;;;;;5058132;28;20024;-83
2023/04/16 10:44:12;;;;;;;5.30;3.97;;;;;;;;;;5055991;28;20091;-81
2023/04/16 10:46:40;;;;;;;5.00;3.83;;;;;;;;;;5055839;28;20045;-83
2023/04/16 10:49:22;;;;;;;8.88;3.90;;;;;;;;;;5056573;28;20036;-82
2023/04/16 10:52:18;;;;;;;4.55;3.67;;;;;;;;;;5055804;28;20025;-82
2023/04/16 10:54:45;;;;;;;18.42;4.40;;;;;;;;;;5051745;28;20036;-82
2023/04/16 10:57:18;;;;;;;5.97;3.42;;;;;;;;;;5055902;28;20106;-81
2023/04/16 10:59:47;;;;;;;5.35;2.90;;;;;;;;;;5057216;28;20598;-83
2023/04/16 11:02:15;;;;;;;4.65;2.58;;;;;;;;;;5056117;28;20112;-82
2023/04/16 11:04:45;;;;;;;3.38;2.38;;;;;;;;;;5057355;28;20025;-83
2023/04/16 11:07:14;;;;;;;8.75;4.40;;;;;;;;;;5059787;28;20027;-82
2023/04/16 11:09:45;;;;;;;4.63;3.33;;;;;;;;;;5057661;28;20075;-83
2023/04/16 11:12:13;;;;;;;6.28;4.15;;;;;;;;;;5056535;28;20029;-83
2023/04/16 11:14:40;;;;;;;4.22;3.55;;;;;;;;;;5055599;28;20043;-83
2023/04/16 11:17:06;;;;;;;4.75;3.42;;;;;;;;;;5055394;28;20037;-83
2023/04/16 11:19:34;;;;;;;5.57;3.55;;;;;;;;;;5055692;28;20037;-83
2023/04/16 11:22:00;;;;;;;5.60;3.25;;;;;;;;;;5055232;28;20047;-83
2023/04/16 11:24:30;;;;;;;12.45;3.95;;;;;;;;;;5055773;28;20037;-83
2023/04/16 11:26:55;;;;;;;3.53;3.20;;;;;;;;;;5056136;28;20230;-84
2023/04/16 11:29:21;;;;;;;5.20;4.20;;;;;;;;;;5055708;28;20025;-84
2023/04/16 11:31:53;;;;;;;5.82;3.53;;;;;;;;;;5053736;28;20100;-82
2023/04/16 11:34:20;;;;;;;6.80;3.90;;;;;;;;;;5053788;28;20037;-82
2023/04/16 11:36:47;;;;;;;5.35;3.25;;;;;;;;;;5056166;28;20033;-83
2023/04/16 11:39:13;;;;;;;4.20;3.00;;;;;;;;;;5056370;28;20033;-83
2023/04/16 11:41:46;;;;;;;2.53;2.33;;;;;;;;;;5055760;28;20033;-82
2023/04/16 11:44:23;;;;;;;4.00;2.85;;;;;;;;;;5054188;28;20488;-80
2023/04/16 11:46:50;;;;;;;3.58;2.35;;;;;;;;;;5053774;28;20114;-82
2023/04/16 11:49:16;;;;;;;3.17;2.70;;;;;;;;;;5056248;28;20040;-83
2023/04/16 11:51:46;;;;;;;4.70;3.72;;;;;;;;;;5055724;28;20044;-81
2023/04/16 11:54:19;;;;;;;4.10;3.30;;;;;;;;;;5055754;28;20067;-83
2023/04/16 11:56:49;;;;;;;3.25;2.78;;;;;;;;;;5055536;28;20481;-82
2023/04/16 11:59:22;;;;;;;3.17;2.75;;;;;;;;;;5038578;28;20036;-82
2023/04/16 12:01:54;;;;;;;4.57;2.53;;;;;;;;;;5054457;28;20032;-85
2023/04/16 12:04:23;;;;;;;2.65;2.40;;;;;;;;;;5055204;28;20350;-83
2023/04/16 12:07:08;;;;;;;4.18;2.47;;;;;;;;;;5058280;28;20334;-83
2023/04/16 12:09:34;;;;;;;3.65;2.45;;;;;;;;;;5056857;28;20507;-83
2023/04/16 12:12:02;;;;;;;3.65;2.78;;;;;;;;;;5056462;28;20033;-83
2023/04/16 12:14:28;;;;;;;3.25;2.70;;;;;;;;;;5056681;28;20028;-82
2023/04/16 12:16:54;;;;;;;6.55;2.85;;;;;;;;;;5054370;28;20048;-81
2023/04/16 12:19:21;;;;;;;2.92;2.40;;;;;;;;;;5054511;28;20032;-83
2023/04/16 12:21:48;;;;;;;3.55;2.95;;;;;;;;;;5054233;28;20119;-82
2023/04/16 12:24:16;;;;;;;3.17;2.35;;;;;;;;;;5056638;28;20029;-83
2023/04/16 12:26:49;;;;;;;3.75;2.60;;;;;;;;;;5038350;28;20407;-82
2023/04/16 12:29:22;;;;;;;6.97;2.38;;;;;;;;;;5054137;28;20472;-81
2023/04/16 12:31:49;;;;;;;2.97;2.33;;;;;;;;;;5055945;28;20040;-83
2023/04/16 12:34:16;;;;;;;2.55;2.35;;;;;;;;;;5055362;28;20029;-82
2023/04/16 12:36:42;;;;;;;3.72;3.17;;;;;;;;;;5056666;28;20469;-82
2023/04/16 12:39:09;;;;;;;3.63;2.00;;;;;;;;;;5055660;28;20048;-82
2023/04/16 12:41:41;;;;;;;2.88;2.38;;;;;;;;;;5054849;28;20044;-82
2023/04/16 12:44:15;;;;;;;3.17;2.40;;;;;;;;;;5055320;28;20032;-83
2023/04/16 12:46:42;;;;;;;3.55;2.75;;;;;;;;;;5059517;28;20057;-83
2023/04/16 12:49:08;;;;;;;2.03;1.58;;;;;;;;;;5059345;28;20049;-83
2023/04/16 12:51:36;;;;;;;2.35;2.15;;;;;;;;;;5059117;28;20013;-83
2023/04/16 12:54:08;;;;;;;4.03;2.58;;;;;;;;;;5058984;28;20035;-82
2023/04/16 12:56:35;;;;;;;3.70;2.47;;;;;;;;;;5058056;28;20385;-82
2023/04/16 12:59:00;;;;;;;2.38;2.17;;;;;;;;;;5057558;28;20029;-81
2023/04/16 13:01:26;;;;;;;2.50;2.17;;;;;;;;;;5057734;28;20127;-82
2023/04/16 13:03:51;;;;;;;7.75;2.58;;;;;;;;;;5058702;28;20025;-83
2023/04/16 13:06:17;;;;;;;5.95;2.30;;;;;;;;;;5058610;28;20488;-82
2023/04/16 13:08:43;;;;;;;1.60;1.50;;;;;;;;;;5060330;28;20035;-83
2023/04/16 13:11:09;;;;;;;2.63;2.13;;;;;;;;;;5059958;28;20112;-83
2023/04/16 13:13:35;;;;;;;7.32;2.42;;;;;;;;;;5059597;28;20032;-83
2023/04/16 13:16:02;;;;;;;3.40;1.85;;;;;;;;;;5059379;28;20028;-83
2023/04/16 13:18:28;;;;;;;4.55;2.33;;;;;;;;;;5057454;28;20029;-83
2023/04/16 13:20:54;;;;;;;5.57;2.35;;;;;;;;;;5057457;28;20063;-82
2023/04/16 13:23:20;;;;;;;3.08;2.78;;;;;;;;;;5041533;28;20441;-82
2023/04/16 13:25:45;;;;;;;4.78;2.60;;;;;;;;;;5059875;28;20088;-82
2023/04/16 13:28:11;;;;;;;4.60;3.20;;;;;;;;;;5058649;28;20074;-83
2023/04/16 13:30:37;;;;;;;3.20;2.65;;;;;;;;;;5040615;28;20115;-82
2023/04/16 13:33:02;;;;;;;3.45;2.63;;;;;;;;;;5058461;28;20039;-83
2023/04/16 13:35:28;;;;;;;2.50;2.28;;;;;;;;;;5056987;28;20024;-83
2023/04/16 13:37:54;;;;;;;3.55;2.83;;;;;;;;;;5056823;28;20021;-83
2023/04/16 13:40:19;;;;;;;3.33;2.50;;;;;;;;;;5057376;28;20048;-82
2023/04/16 13:42:45;;;;;;;4.80;2.78;;;;;;;;;;5058353;28;20128;-83
2023/04/16 13:45:10;;;;;;;3.35;2.90;;;;;;;;;;5058120;28;20029;-85
2023/04/16 13:47:40;;;;;;;3.75;2.90;;;;;;;;;;5057995;28;20049;-83
2023/04/16 13:50:06;;;;;;;2.97;2.78;;;;;;;;;;5060261;28;20025;-83
2023/04/16 13:52:32;;;;;;;3.22;2.88;;;;;;;;;;5041944;28;20021;-83
2023/04/16 13:54:58;;;;;;;3.92;2.90;;;;;;;;;;5059159;28;20037;-84
2023/04/16 13:57:23;;;;;;;4.57;2.85;;;;;;;;;;5057926;28;20031;-83
2023/04/16 13:59:49;;;;;;;2.95;2.65;;;;;;;;;;5058613;28;20128;-83
2023/04/16 14:02:14;;;;;;;3.45;2.67;;;;;;;;;;5057597;28;20082;-83
2023/04/16 14:04:40;;;;;;;9.40;3.65;;;;;;;;;;5059728;28;20025;-83
2023/04/16 14:07:06;;;;;;;4.82;2.88;;;;;;;;;;5058272;28;20563;-83
2023/04/16 14:09:32;;;;;;;2.88;2.60;;;;;;;;;;5058319;28;20458;-83
2023/04/16 14:11:57;;;;;;;4.80;3.10;;;;;;;;;;5059579;28;20024;-84
2023/04/16 14:14:24;;;;;;;2.72;2.50;;;;;;;;;;5059083;28;20474;-83
2023/04/16 14:16:50;;;;;;;3.40;3.10;;;;;;;;;;5058827;28;20017;-84
2023/04/16 14:19:15;;;;;;;2.95;2.60;;;;;;;;;;5058371;28;20029;-85
2023/04/16 14:21:41;;;;;;;9.02;3.28;;;;;;;;;;5058619;28;20062;-84
2023/04/16 14:24:08;;;;;;;7.07;2.85;;;;;;;;;;5058046;28;20127;-83